sensor_id;sensor_type;location;lat;lon;timestamp;temperature;humidity
16158;DHT22;8184;60.256;18.694;2023-04-03T00:01:30;-1.00;99.90
16158;DHT22;8184;60.256;18.694;2023-04-03T00:03:58;-0.80;99.90
16158;DHT22;8184;60.256;18.694;2023-04-03T00:06:27;-0.90;99.90
16158;DHT22;8184;60.256;18.694;2023-04-03T00:08:55;-0.80;99.90
16158;DHT22;8184;60.256;18.694;2023-04-03T00:11:23;-0.80;99.90
16158;DHT22;8184;60.256;18.694;2023-04-03T00:13:52;-0.90;99.90
16158;DHT22;8184;60.256;18.694;2023-04-03T00:16:22;-0.80;99.90
16158;DHT22;8184;60.256;18.694;2023-04-03T00:18:50;-0.80;99.90
16158;DHT22;8184;60.256;18.694;2023-04-03T00:21:18;-0.90;99.90
16158;DHT22;8184;60.256;18.694;2023-04-03T00:23:47;-0.80;99.90
16158;DHT22;8184;60.256;18.694;2023-04-03T00:26:15;-0.90;99.90
16158;DHT22;8184;60.256;18.694;2023-04-03T00:28:43;-0.90;99.90
16158;DHT22;8184;60.256;18.694;2023-04-03T00:31:13;-0.90;99.90
16158;DHT22;8184;60.256;18.694;2023-04-03T00:33:43;-0.80;99.90
16158;DHT22;8184;60.256;18.694;2023-04-03T00:36:12;-0.90;99.90
16158;DHT22;8184;60.256;18.694;2023-04-03T00:38:40;-0.90;99.90
16158;DHT22;8184;60.256;18.694;2023-04-03T00:41:08;-0.80;99.90
16158;DHT22;8184;60.256;18.694;2023-04-03T00:43:37;-0.80;99.90
16158;DHT22;8184;60.256;18.694;2023-04-03T00:46:05;-0.80;99.90
16158;DHT22;8184;60.256;18.694;2023-04-03T00:48:34;-0.80;99.90
16158;DHT22;8184;60.256;18.694;2023-04-03T00:51:05;-0.80;99.90
16158;DHT22;8184;60.256;18.694;2023-04-03T00:53:35;-0.90;99.90
16158;DHT22;8184;60.256;18.694;2023-04-03T00:56:06;-0.90;99.90
16158;DHT22;8184;60.256;18.694;2023-04-03T00:58:37;-1.00;99.90
16158;DHT22;8184;60.256;18.694;2023-04-03T01:01:06;-1.00;99.90
16158;DHT22;8184;60.256;18.694;2023-04-03T01:03:35;-1.00;99.90
16158;DHT22;8184;60.256;18.694;2023-04-03T01:06:05;-0.90;99.90
16158;DHT22;8184;60.256;18.694;2023-04-03T01:08:34;-0.90;99.90
16158;DHT22;8184;60.256;18.694;2023-04-03T01:11:03;-0.90;99.90
16158;DHT22;8184;60.256;18.694;2023-04-03T01:13:32;-1.00;99.90
16158;DHT22;8184;60.256;18.694;2023-04-03T01:16:01;-1.00;99.90
16158;DHT22;8184;60.256;18.694;2023-04-03T01:18:30;-1.00;99.90
16158;DHT22;8184;60.256;18.694;2023-04-03T01:21:08;-1.00;99.90
16158;DHT22;8184;60.256;18.694;2023-04-03T01:23:45;-1.00;99.90
16158;DHT22;8184;60.256;18.694;2023-04-03T01:26:19;-1.10;99.90
16158;DHT22;8184;60.256;18.694;2023-04-03T01:28:49;-1.10;99.90
16158;DHT22;8184;60.256;18.694;2023-04-03T01:31:19;-1.00;99.90
16158;DHT22;8184;60.256;18.694;2023-04-03T01:33:50;-1.00;99.90
16158;DHT22;8184;60.256;18.694;2023-04-03T01:36:19;-1.20;99.90
16158;DHT22;8184;60.256;18.694;2023-04-03T01:38:48;-1.10;99.90
16158;DHT22;8184;60.256;18.694;2023-04-03T01:41:16;-1.10;99.90
16158;DHT22;8184;60.256;18.694;2023-04-03T01:43:45;-1.00;99.90
16158;DHT22;8184;60.256;18.694;2023-04-03T01:46:15;-1.00;99.90
16158;DHT22;8184;60.256;18.694;2023-04-03T01:48:44;-1.10;99.90
16158;DHT22;8184;60.256;18.694;2023-04-03T01:51:13;-1.10;99.90
16158;DHT22;8184;60.256;18.694;2023-04-03T01:53:43;-1.00;99.90
16158;DHT22;8184;60.256;18.694;2023-04-03T01:56:11;-1.10;99.90
16158;DHT22;8184;60.256;18.694;2023-04-03T01:58:42;-1.10;99.90
16158;DHT22;8184;60.256;18.694;2023-04-03T02:01:10;-1.00;99.90
16158;DHT22;8184;60.256;18.694;2023-04-03T02:03:38;-1.00;99.90
16158;DHT22;8184;60.256;18.694;2023-04-03T02:06:07;-1.20;99.90
16158;DHT22;8184;60.256;18.694;2023-04-03T02:08:39;-1.20;99.90
16158;DHT22;8184;60.256;18.694;2023-04-03T02:11:09;-1.10;99.90
16158;DHT22;8184;60.256;18.694;2023-04-03T02:13:40;-1.10;99.90
16158;DHT22;8184;60.256;18.694;2023-04-03T02:16:08;-1.20;99.90
16158;DHT22;8184;60.256;18.694;2023-04-03T02:18:37;-1.20;99.90
16158;DHT22;8184;60.256;18.694;2023-04-03T02:21:05;-1.40;99.90
16158;DHT22;8184;60.256;18.694;2023-04-03T02:23:33;-1.30;99.90
16158;DHT22;8184;60.256;18.694;2023-04-03T02:26:06;-1.30;99.90
16158;DHT22;8184;60.256;18.694;2023-04-03T02:28:34;-1.20;99.90
16158;DHT22;8184;60.256;18.694;2023-04-03T02:31:03;-1.30;99.90
16158;DHT22;8184;60.256;18.694;2023-04-03T02:33:35;-1.40;99.90
16158;DHT22;8184;60.256;18.694;2023-04-03T02:36:06;-1.40;99.90
16158;DHT22;8184;60.256;18.694;2023-04-03T02:38:35;-1.40;99.90
16158;DHT22;8184;60.256;18.694;2023-04-03T02:41:05;-1.50;99.90
16158;DHT22;8184;60.256;18.694;2023-04-03T02:43:34;-1.50;99.90
16158;DHT22;8184;60.256;18.694;2023-04-03T02:46:03;-1.60;99.90
16158;DHT22;8184;60.256;18.694;2023-04-03T02:48:32;-1.60;99.90
16158;DHT22;8184;60.256;18.694;2023-04-03T02:51:02;-1.60;99.90
16158;DHT22;8184;60.256;18.694;2023-04-03T02:53:30;-1.60;99.90
16158;DHT22;8184;60.256;18.694;2023-04-03T02:55:58;-1.60;99.90
16158;DHT22;8184;60.256;18.694;2023-04-03T02:58:28;-1.60;99.90
16158;DHT22;8184;60.256;18.694;2023-04-03T03:00:57;-1.60;99.90
16158;DHT22;8184;60.256;18.694;2023-04-03T03:03:25;-1.60;99.90
16158;DHT22;8184;60.256;18.694;2023-04-03T03:06:00;-1.60;99.90
16158;DHT22;8184;60.256;18.694;2023-04-03T03:08:28;-1.60;99.90
16158;DHT22;8184;60.256;18.694;2023-04-03T03:10:58;-1.60;99.90
16158;DHT22;8184;60.256;18.694;2023-04-03T03:13:28;-1.70;99.90
16158;DHT22;8184;60.256;18.694;2023-04-03T03:15:57;-1.60;99.90
16158;DHT22;8184;60.256;18.694;2023-04-03T03:18:25;-1.50;99.90
16158;DHT22;8184;60.256;18.694;2023-04-03T03:20:53;-1.50;99.90
16158;DHT22;8184;60.256;18.694;2023-04-03T03:23:22;-1.50;99.90
16158;DHT22;8184;60.256;18.694;2023-04-03T03:25:54;-1.60;99.90
16158;DHT22;8184;60.256;18.694;2023-04-03T03:28:22;-1.70;99.90
16158;DHT22;8184;60.256;18.694;2023-04-03T03:30:52;-1.80;99.90
16158;DHT22;8184;60.256;18.694;2023-04-03T03:33:20;-1.80;99.90
16158;DHT22;8184;60.256;18.694;2023-04-03T03:35:48;-1.80;99.90
16158;DHT22;8184;60.256;18.694;2023-04-03T03:38:17;-1.80;99.90
16158;DHT22;8184;60.256;18.694;2023-04-03T03:40:46;-1.80;99.90
16158;DHT22;8184;60.256;18.694;2023-04-03T03:43:15;-1.80;99.90
16158;DHT22;8184;60.256;18.694;2023-04-03T03:45:43;-1.80;99.90
16158;DHT22;8184;60.256;18.694;2023-04-03T03:48:13;-1.80;99.90
16158;DHT22;8184;60.256;18.694;2023-04-03T03:50:44;-1.70;99.90
16158;DHT22;8184;60.256;18.694;2023-04-03T03:53:12;-1.70;99.90
16158;DHT22;8184;60.256;18.694;2023-04-03T03:55:41;-1.70;99.90
16158;DHT22;8184;60.256;18.694;2023-04-03T03:58:09;-1.70;99.90
16158;DHT22;8184;60.256;18.694;2023-04-03T04:00:38;-1.60;99.90
16158;DHT22;8184;60.256;18.694;2023-04-03T04:03:06;-1.60;99.90
16158;DHT22;8184;60.256;18.694;2023-04-03T04:05:36;-1.80;99.90
16158;DHT22;8184;60.256;18.694;2023-04-03T04:08:05;-1.70;99.90
16158;DHT22;8184;60.256;18.694;2023-04-03T04:10:33;-1.60;99.90
16158;DHT22;8184;60.256;18.694;2023-04-03T04:13:01;-1.60;99.90
16158;DHT22;8184;60.256;18.694;2023-04-03T04:15:30;-1.70;99.90
16158;DHT22;8184;60.256;18.694;2023-04-03T04:17:58;-1.70;99.90
16158;DHT22;8184;60.256;18.694;2023-04-03T04:20:26;-1.70;99.90
16158;DHT22;8184;60.256;18.694;2023-04-03T04:22:56;-1.80;99.90
16158;DHT22;8184;60.256;18.694;2023-04-03T04:25:24;-1.70;99.90
16158;DHT22;8184;60.256;18.694;2023-04-03T04:27:52;-1.70;99.90
16158;DHT22;8184;60.256;18.694;2023-04-03T04:30:20;-1.70;99.90
16158;DHT22;8184;60.256;18.694;2023-04-03T04:32:49;-1.60;99.90
16158;DHT22;8184;60.256;18.694;2023-04-03T04:35:17;-1.60;99.90
16158;DHT22;8184;60.256;18.694;2023-04-03T04:37:48;-1.60;99.90
16158;DHT22;8184;60.256;18.694;2023-04-03T04:40:18;-1.70;99.90
16158;DHT22;8184;60.256;18.694;2023-04-03T04:42:46;-1.50;99.90
16158;DHT22;8184;60.256;18.694;2023-04-03T04:45:15;-1.40;99.90
16158;DHT22;8184;60.256;18.694;2023-04-03T04:47:43;-1.40;99.90
16158;DHT22;8184;60.256;18.694;2023-04-03T04:50:11;-1.40;99.90
16158;DHT22;8184;60.256;18.694;2023-04-03T04:52:39;-1.50;99.90
16158;DHT22;8184;60.256;18.694;2023-04-03T04:55:08;-1.50;99.90
16158;DHT22;8184;60.256;18.694;2023-04-03T04:57:38;-1.40;99.90
16158;DHT22;8184;60.256;18.694;2023-04-03T05:00:06;-1.30;99.90
16158;DHT22;8184;60.256;18.694;2023-04-03T05:02:37;-1.30;99.90
16158;DHT22;8184;60.256;18.694;2023-04-03T05:05:05;-1.40;99.90
16158;DHT22;8184;60.256;18.694;2023-04-03T05:07:33;-1.40;99.90
16158;DHT22;8184;60.256;18.694;2023-04-03T05:10:02;-1.40;99.90
16158;DHT22;8184;60.256;18.694;2023-04-03T05:12:31;-1.20;99.90
16158;DHT22;8184;60.256;18.694;2023-04-03T05:15:01;-1.20;99.90
16158;DHT22;8184;60.256;18.694;2023-04-03T05:17:29;-1.30;99.90
16158;DHT22;8184;60.256;18.694;2023-04-03T05:19:58;-1.20;99.90
16158;DHT22;8184;60.256;18.694;2023-04-03T05:22:26;-1.20;99.90
16158;DHT22;8184;60.256;18.694;2023-04-03T05:24:54;-1.20;99.90
16158;DHT22;8184;60.256;18.694;2023-04-03T05:27:22;-1.00;99.90
16158;DHT22;8184;60.256;18.694;2023-04-03T05:29:52;-1.10;99.90
16158;DHT22;8184;60.256;18.694;2023-04-03T05:32:21;-1.00;99.90
16158;DHT22;8184;60.256;18.694;2023-04-03T05:34:50;-0.90;99.90
16158;DHT22;8184;60.256;18.694;2023-04-03T05:37:18;-1.00;99.90
16158;DHT22;8184;60.256;18.694;2023-04-03T05:39:47;-0.80;99.90
16158;DHT22;8184;60.256;18.694;2023-04-03T05:42:16;-0.70;99.90
16158;DHT22;8184;60.256;18.694;2023-04-03T05:44:44;-0.50;99.90
16158;DHT22;8184;60.256;18.694;2023-04-03T05:47:17;-0.50;99.90
16158;DHT22;8184;60.256;18.694;2023-04-03T05:49:46;-0.50;99.90
16158;DHT22;8184;60.256;18.694;2023-04-03T05:52:17;-0.40;99.90
16158;DHT22;8184;60.256;18.694;2023-04-03T05:54:50;-0.40;99.90
16158;DHT22;8184;60.256;18.694;2023-04-03T05:57:19;-0.30;99.90
16158;DHT22;8184;60.256;18.694;2023-04-03T05:59:47;-0.20;99.90
16158;DHT22;8184;60.256;18.694;2023-04-03T06:02:17;0.00;99.90
16158;DHT22;8184;60.256;18.694;2023-04-03T06:04:46;0.10;99.90
16158;DHT22;8184;60.256;18.694;2023-04-03T06:07:16;0.60;99.90
16158;DHT22;8184;60.256;18.694;2023-04-03T06:09:46;0.10;99.90
16158;DHT22;8184;60.256;18.694;2023-04-03T06:12:14;0.20;99.90
16158;DHT22;8184;60.256;18.694;2023-04-03T06:14:44;0.10;99.90
16158;DHT22;8184;60.256;18.694;2023-04-03T06:17:12;0.30;99.90
16158;DHT22;8184;60.256;18.694;2023-04-03T06:19:40;0.30;99.90
16158;DHT22;8184;60.256;18.694;2023-04-03T06:22:12;0.40;99.90
16158;DHT22;8184;60.256;18.694;2023-04-03T06:24:41;0.40;99.90
16158;DHT22;8184;60.256;18.694;2023-04-03T06:27:10;0.50;99.90
16158;DHT22;8184;60.256;18.694;2023-04-03T06:29:39;0.60;99.90
16158;DHT22;8184;60.256;18.694;2023-04-03T06:32:07;0.70;99.90
16158;DHT22;8184;60.256;18.694;2023-04-03T06:34:35;0.80;99.90
16158;DHT22;8184;60.256;18.694;2023-04-03T06:37:04;0.90;99.90
16158;DHT22;8184;60.256;18.694;2023-04-03T06:39:33;0.80;99.90
16158;DHT22;8184;60.256;18.694;2023-04-03T06:42:01;0.90;99.90
16158;DHT22;8184;60.256;18.694;2023-04-03T06:44:30;1.00;99.90
16158;DHT22;8184;60.256;18.694;2023-04-03T06:47:00;1.10;99.90
16158;DHT22;8184;60.256;18.694;2023-04-03T06:49:28;1.10;99.90
16158;DHT22;8184;60.256;18.694;2023-04-03T06:51:59;1.10;99.90
16158;DHT22;8184;60.256;18.694;2023-04-03T06:54:28;1.00;99.90
16158;DHT22;8184;60.256;18.694;2023-04-03T06:56:58;1.20;99.90
16158;DHT22;8184;60.256;18.694;2023-04-03T06:59:26;1.10;99.90
16158;DHT22;8184;60.256;18.694;2023-04-03T07:01:55;1.30;99.90
16158;DHT22;8184;60.256;18.694;2023-04-03T07:04:23;1.20;99.90
16158;DHT22;8184;60.256;18.694;2023-04-03T07:06:51;1.20;99.90
16158;DHT22;8184;60.256;18.694;2023-04-03T07:09:20;1.10;99.90
16158;DHT22;8184;60.256;18.694;2023-04-03T07:11:48;1.00;99.90
16158;DHT22;8184;60.256;18.694;2023-04-03T07:14:17;1.00;99.90
16158;DHT22;8184;60.256;18.694;2023-04-03T07:16:46;1.20;99.90
16158;DHT22;8184;60.256;18.694;2023-04-03T07:19:14;1.20;99.90
16158;DHT22;8184;60.256;18.694;2023-04-03T07:21:42;1.40;99.90
16158;DHT22;8184;60.256;18.694;2023-04-03T07:24:13;1.20;99.90
16158;DHT22;8184;60.256;18.694;2023-04-03T07:26:42;1.20;99.90
16158;DHT22;8184;60.256;18.694;2023-04-03T07:29:12;1.40;99.90
16158;DHT22;8184;60.256;18.694;2023-04-03T07:31:42;1.30;99.90
16158;DHT22;8184;60.256;18.694;2023-04-03T07:34:11;1.20;99.90
16158;DHT22;8184;60.256;18.694;2023-04-03T07:36:39;1.60;99.90
16158;DHT22;8184;60.256;18.694;2023-04-03T07:39:08;1.60;99.90
16158;DHT22;8184;60.256;18.694;2023-04-03T07:41:36;1.40;99.90
16158;DHT22;8184;60.256;18.694;2023-04-03T07:44:07;1.50;99.90
16158;DHT22;8184;60.256;18.694;2023-04-03T07:46:36;1.30;99.90
16158;DHT22;8184;60.256;18.694;2023-04-03T07:49:06;1.30;99.90
16158;DHT22;8184;60.256;18.694;2023-04-03T07:51:34;1.40;99.90
16158;DHT22;8184;60.256;18.694;2023-04-03T07:54:02;1.60;99.90
16158;DHT22;8184;60.256;18.694;2023-04-03T07:56:31;1.70;99.90
16158;DHT22;8184;60.256;18.694;2023-04-03T07:59:00;1.90;99.90
16158;DHT22;8184;60.256;18.694;2023-04-03T08:01:28;1.90;99.90
16158;DHT22;8184;60.256;18.694;2023-04-03T08:03:59;1.80;99.90
16158;DHT22;8184;60.256;18.694;2023-04-03T08:06:30;1.60;99.90
16158;DHT22;8184;60.256;18.694;2023-04-03T08:09:12;1.80;99.90
16158;DHT22;8184;60.256;18.694;2023-04-03T08:11:41;1.80;99.90
16158;DHT22;8184;60.256;18.694;2023-04-03T08:14:09;1.90;99.90
16158;DHT22;8184;60.256;18.694;2023-04-03T08:16:42;1.50;99.90
16158;DHT22;8184;60.256;18.694;2023-04-03T08:19:10;1.50;99.90
16158;DHT22;8184;60.256;18.694;2023-04-03T08:21:52;1.80;99.90
16158;DHT22;8184;60.256;18.694;2023-04-03T08:24:21;2.10;99.90
16158;DHT22;8184;60.256;18.694;2023-04-03T08:26:49;1.70;99.90
16158;DHT22;8184;60.256;18.694;2023-04-03T08:29:19;1.60;99.90
16158;DHT22;8184;60.256;18.694;2023-04-03T08:31:48;1.60;99.90
16158;DHT22;8184;60.256;18.694;2023-04-03T08:34:17;1.70;99.90
16158;DHT22;8184;60.256;18.694;2023-04-03T08:36:46;2.00;99.90
16158;DHT22;8184;60.256;18.694;2023-04-03T08:39:15;2.20;99.90
16158;DHT22;8184;60.256;18.694;2023-04-03T08:41:44;1.90;99.90
16158;DHT22;8184;60.256;18.694;2023-04-03T08:44:15;2.00;99.90
16158;DHT22;8184;60.256;18.694;2023-04-03T08:46:54;1.90;99.90
16158;DHT22;8184;60.256;18.694;2023-04-03T08:49:26;2.00;99.90
16158;DHT22;8184;60.256;18.694;2023-04-03T08:51:55;2.50;99.90
16158;DHT22;8184;60.256;18.694;2023-04-03T08:54:27;2.50;99.90
16158;DHT22;8184;60.256;18.694;2023-04-03T08:56:56;2.30;99.90
16158;DHT22;8184;60.256;18.694;2023-04-03T08:59:27;2.50;99.90
16158;DHT22;8184;60.256;18.694;2023-04-03T09:01:56;2.20;99.90
16158;DHT22;8184;60.256;18.694;2023-04-03T09:04:25;2.10;99.90
16158;DHT22;8184;60.256;18.694;2023-04-03T09:06:56;1.90;99.90
16158;DHT22;8184;60.256;18.694;2023-04-03T09:09:31;2.20;99.90
16158;DHT22;8184;60.256;18.694;2023-04-03T09:12:03;2.40;99.90
16158;DHT22;8184;60.256;18.694;2023-04-03T09:14:36;2.80;99.90
16158;DHT22;8184;60.256;18.694;2023-04-03T09:17:09;2.90;99.90
16158;DHT22;8184;60.256;18.694;2023-04-03T09:19:43;2.90;99.90
16158;DHT22;8184;60.256;18.694;2023-04-03T09:22:16;3.00;99.90
16158;DHT22;8184;60.256;18.694;2023-04-03T09:24:48;2.20;99.90
16158;DHT22;8184;60.256;18.694;2023-04-03T09:27:18;2.60;99.90
16158;DHT22;8184;60.256;18.694;2023-04-03T09:29:46;2.90;99.90
16158;DHT22;8184;60.256;18.694;2023-04-03T09:32:18;2.40;99.90
16158;DHT22;8184;60.256;18.694;2023-04-03T09:34:47;2.90;99.90
16158;DHT22;8184;60.256;18.694;2023-04-03T09:40:01;2.80;99.90
16158;DHT22;8184;60.256;18.694;2023-04-03T09:42:31;2.60;99.90
16158;DHT22;8184;60.256;18.694;2023-04-03T09:45:00;3.00;99.90
16158;DHT22;8184;60.256;18.694;2023-04-03T09:47:29;3.10;99.90
16158;DHT22;8184;60.256;18.694;2023-04-03T09:50:09;3.00;99.90
16158;DHT22;8184;60.256;18.694;2023-04-03T09:52:37;3.00;99.90
16158;DHT22;8184;60.256;18.694;2023-04-03T09:55:08;3.10;99.90
16158;DHT22;8184;60.256;18.694;2023-04-03T09:57:36;2.90;99.90
16158;DHT22;8184;60.256;18.694;2023-04-03T10:00:05;2.60;99.90
16158;DHT22;8184;60.256;18.694;2023-04-03T10:02:38;2.90;99.90
16158;DHT22;8184;60.256;18.694;2023-04-03T10:07:50;3.30;99.90
16158;DHT22;8184;60.256;18.694;2023-04-03T10:10:30;3.00;99.90
16158;DHT22;8184;60.256;18.694;2023-04-03T10:13:05;3.10;99.90
16158;DHT22;8184;60.256;18.694;2023-04-03T10:15:36;3.40;99.90
16158;DHT22;8184;60.256;18.694;2023-04-03T10:18:09;3.80;99.90
16158;DHT22;8184;60.256;18.694;2023-04-03T10:20:44;3.10;99.90
16158;DHT22;8184;60.256;18.694;2023-04-03T10:23:15;3.40;99.90
16158;DHT22;8184;60.256;18.694;2023-04-03T10:25:50;3.90;99.90
16158;DHT22;8184;60.256;18.694;2023-04-03T10:28:25;3.80;99.90
16158;DHT22;8184;60.256;18.694;2023-04-03T10:30:56;4.00;99.90
16158;DHT22;8184;60.256;18.694;2023-04-03T10:33:30;3.80;99.90
16158;DHT22;8184;60.256;18.694;2023-04-03T10:36:07;3.60;99.90
16158;DHT22;8184;60.256;18.694;2023-04-03T10:38:40;3.90;99.90
16158;DHT22;8184;60.256;18.694;2023-04-03T10:41:14;3.90;99.90
16158;DHT22;8184;60.256;18.694;2023-04-03T10:43:45;3.90;99.90
16158;DHT22;8184;60.256;18.694;2023-04-03T10:46:18;3.60;99.90
16158;DHT22;8184;60.256;18.694;2023-04-03T10:48:52;3.70;99.90
16158;DHT22;8184;60.256;18.694;2023-04-03T10:51:24;3.60;99.90
16158;DHT22;8184;60.256;18.694;2023-04-03T10:53:55;3.80;99.90
16158;DHT22;8184;60.256;18.694;2023-04-03T10:56:30;3.50;99.90
16158;DHT22;8184;60.256;18.694;2023-04-03T10:59:16;3.80;99.90
16158;DHT22;8184;60.256;18.694;2023-04-03T11:01:48;3.50;99.90
16158;DHT22;8184;60.256;18.694;2023-04-03T11:04:19;4.20;99.90
16158;DHT22;8184;60.256;18.694;2023-04-03T11:06:50;4.20;99.90
16158;DHT22;8184;60.256;18.694;2023-04-03T11:09:24;3.80;99.90
16158;DHT22;8184;60.256;18.694;2023-04-03T11:11:56;4.00;99.90
16158;DHT22;8184;60.256;18.694;2023-04-03T11:14:29;4.30;99.90
16158;DHT22;8184;60.256;18.694;2023-04-03T11:17:01;4.40;99.90
16158;DHT22;8184;60.256;18.694;2023-04-03T11:19:34;4.10;99.90
16158;DHT22;8184;60.256;18.694;2023-04-03T11:22:05;4.50;99.90
16158;DHT22;8184;60.256;18.694;2023-04-03T11:24:36;4.50;99.90
16158;DHT22;8184;60.256;18.694;2023-04-03T11:27:09;4.60;99.90
16158;DHT22;8184;60.256;18.694;2023-04-03T11:29:39;4.10;99.90
16158;DHT22;8184;60.256;18.694;2023-04-03T11:32:10;4.20;99.90
16158;DHT22;8184;60.256;18.694;2023-04-03T11:34:43;3.70;99.90
16158;DHT22;8184;60.256;18.694;2023-04-03T11:37:15;3.70;99.90
16158;DHT22;8184;60.256;18.694;2023-04-03T11:39:47;3.50;99.90
16158;DHT22;8184;60.256;18.694;2023-04-03T11:42:23;4.00;99.90
16158;DHT22;8184;60.256;18.694;2023-04-03T11:47:45;4.60;99.90
16158;DHT22;8184;60.256;18.694;2023-04-03T11:50:31;4.90;99.90
16158;DHT22;8184;60.256;18.694;2023-04-03T11:53:00;4.50;99.90
16158;DHT22;8184;60.256;18.694;2023-04-03T11:55:46;4.40;99.90
16158;DHT22;8184;60.256;18.694;2023-04-03T11:58:21;4.10;99.90
16158;DHT22;8184;60.256;18.694;2023-04-03T12:00:52;4.30;99.90
16158;DHT22;8184;60.256;18.694;2023-04-03T12:09:10;4.00;99.90
16158;DHT22;8184;60.256;18.694;2023-04-03T12:11:49;4.30;99.90
16158;DHT22;8184;60.256;18.694;2023-04-03T12:14:20;4.70;99.90
16158;DHT22;8184;60.256;18.694;2023-04-03T12:16:49;4.90;99.90
16158;DHT22;8184;60.256;18.694;2023-04-03T12:19:35;5.00;99.90
16158;DHT22;8184;60.256;18.694;2023-04-03T12:22:13;4.80;99.90
16158;DHT22;8184;60.256;18.694;2023-04-03T12:24:42;4.90;99.90
16158;DHT22;8184;60.256;18.694;2023-04-03T12:30:14;4.70;99.90
16158;DHT22;8184;60.256;18.694;2023-04-03T12:32:48;4.00;99.90
16158;DHT22;8184;60.256;18.694;2023-04-03T12:35:34;4.60;99.90
16158;DHT22;8184;60.256;18.694;2023-04-03T12:38:17;4.80;99.90
16158;DHT22;8184;60.256;18.694;2023-04-03T12:40:51;4.90;99.90
16158;DHT22;8184;60.256;18.694;2023-04-03T12:43:34;3.70;99.90
16158;DHT22;8184;60.256;18.694;2023-04-03T12:46:09;4.50;99.90
16158;DHT22;8184;60.256;18.694;2023-04-03T12:48:46;3.10;99.90
16158;DHT22;8184;60.256;18.694;2023-04-03T12:51:15;3.60;99.90
16158;DHT22;8184;60.256;18.694;2023-04-03T12:53:49;4.50;99.90
16158;DHT22;8184;60.256;18.694;2023-04-03T12:56:18;4.90;99.90
16158;DHT22;8184;60.256;18.694;2023-04-03T12:58:47;4.90;99.90
16158;DHT22;8184;60.256;18.694;2023-04-03T13:01:17;4.80;99.90
16158;DHT22;8184;60.256;18.694;2023-04-03T13:03:48;4.80;99.90
16158;DHT22;8184;60.256;18.694;2023-04-03T13:06:17;3.60;99.90
16158;DHT22;8184;60.256;18.694;2023-04-03T13:08:51;4.40;99.90
16158;DHT22;8184;60.256;18.694;2023-04-03T13:11:19;4.80;99.90
16158;DHT22;8184;60.256;18.694;2023-04-03T13:13:55;5.00;99.90
16158;DHT22;8184;60.256;18.694;2023-04-03T13:16:25;5.00;99.90
16158;DHT22;8184;60.256;18.694;2023-04-03T13:18:54;3.80;99.90
16158;DHT22;8184;60.256;18.694;2023-04-03T13:21:23;3.90;99.90
16158;DHT22;8184;60.256;18.694;2023-04-03T13:23:53;4.00;99.90
16158;DHT22;8184;60.256;18.694;2023-04-03T13:26:40;4.90;99.90
16158;DHT22;8184;60.256;18.694;2023-04-03T13:29:17;4.60;99.90
16158;DHT22;8184;60.256;18.694;2023-04-03T13:31:58;4.40;99.90
16158;DHT22;8184;60.256;18.694;2023-04-03T13:34:27;4.20;99.90
16158;DHT22;8184;60.256;18.694;2023-04-03T13:36:58;4.90;99.90
16158;DHT22;8184;60.256;18.694;2023-04-03T13:39:30;5.20;99.90
16158;DHT22;8184;60.256;18.694;2023-04-03T13:41:59;5.00;99.90
16158;DHT22;8184;60.256;18.694;2023-04-03T13:44:31;5.20;99.90
16158;DHT22;8184;60.256;18.694;2023-04-03T13:47:01;5.40;99.90
16158;DHT22;8184;60.256;18.694;2023-04-03T13:49:42;5.00;99.90
16158;DHT22;8184;60.256;18.694;2023-04-03T13:54:58;5.00;99.90
16158;DHT22;8184;60.256;18.694;2023-04-03T13:57:28;5.30;99.90
16158;DHT22;8184;60.256;18.694;2023-04-03T13:59:57;5.50;99.90
16158;DHT22;8184;60.256;18.694;2023-04-03T14:02:30;3.80;99.90
16158;DHT22;8184;60.256;18.694;2023-04-03T14:05:00;3.00;99.90
16158;DHT22;8184;60.256;18.694;2023-04-03T14:07:36;3.00;99.90
16158;DHT22;8184;60.256;18.694;2023-04-03T14:10:06;4.50;99.90
16158;DHT22;8184;60.256;18.694;2023-04-03T14:12:35;4.50;99.90
16158;DHT22;8184;60.256;18.694;2023-04-03T14:15:05;4.60;99.90
16158;DHT22;8184;60.256;18.694;2023-04-03T14:17:37;4.60;99.90
16158;DHT22;8184;60.256;18.694;2023-04-03T14:20:06;4.80;99.90
16158;DHT22;8184;60.256;18.694;2023-04-03T14:22:34;5.00;99.90
16158;DHT22;8184;60.256;18.694;2023-04-03T14:25:03;4.60;99.90
16158;DHT22;8184;60.256;18.694;2023-04-03T14:27:33;3.80;99.90
16158;DHT22;8184;60.256;18.694;2023-04-03T14:30:01;4.20;99.90
16158;DHT22;8184;60.256;18.694;2023-04-03T14:32:32;4.10;99.90
16158;DHT22;8184;60.256;18.694;2023-04-03T14:35:03;4.10;99.90
16158;DHT22;8184;60.256;18.694;2023-04-03T14:37:33;4.70;99.90
16158;DHT22;8184;60.256;18.694;2023-04-03T14:40:02;4.70;99.90
16158;DHT22;8184;60.256;18.694;2023-04-03T14:42:32;5.10;99.90
16158;DHT22;8184;60.256;18.694;2023-04-03T14:45:02;4.00;99.90
16158;DHT22;8184;60.256;18.694;2023-04-03T14:47:31;4.50;99.90
16158;DHT22;8184;60.256;18.694;2023-04-03T14:50:00;4.20;99.90
16158;DHT22;8184;60.256;18.694;2023-04-03T14:52:31;4.80;99.90
16158;DHT22;8184;60.256;18.694;2023-04-03T14:55:00;5.20;99.90
16158;DHT22;8184;60.256;18.694;2023-04-03T14:57:28;5.00;99.90
16158;DHT22;8184;60.256;18.694;2023-04-03T15:00:00;4.70;99.90
16158;DHT22;8184;60.256;18.694;2023-04-03T15:02:31;5.00;99.90
16158;DHT22;8184;60.256;18.694;2023-04-03T15:05:02;4.60;99.90
16158;DHT22;8184;60.256;18.694;2023-04-03T15:07:34;3.90;99.90
16158;DHT22;8184;60.256;18.694;2023-04-03T15:10:05;4.10;99.90
16158;DHT22;8184;60.256;18.694;2023-04-03T15:12:35;4.80;99.90
16158;DHT22;8184;60.256;18.694;2023-04-03T15:15:03;3.90;99.90
16158;DHT22;8184;60.256;18.694;2023-04-03T15:17:32;3.50;99.90
16158;DHT22;8184;60.256;18.694;2023-04-03T15:20:01;3.00;99.90
16158;DHT22;8184;60.256;18.694;2023-04-03T15:22:31;4.10;99.90
16158;DHT22;8184;60.256;18.694;2023-04-03T15:25:01;4.70;99.90
16158;DHT22;8184;60.256;18.694;2023-04-03T15:27:32;4.20;99.90
16158;DHT22;8184;60.256;18.694;2023-04-03T15:30:00;4.60;99.90
16158;DHT22;8184;60.256;18.694;2023-04-03T15:32:28;4.20;99.90
16158;DHT22;8184;60.256;18.694;2023-04-03T15:34:58;4.80;99.90
16158;DHT22;8184;60.256;18.694;2023-04-03T15:37:26;3.60;99.90
16158;DHT22;8184;60.256;18.694;2023-04-03T15:39:54;3.20;99.90
16158;DHT22;8184;60.256;18.694;2023-04-03T15:42:24;3.40;99.90
16158;DHT22;8184;60.256;18.694;2023-04-03T15:44:52;3.50;99.90
16158;DHT22;8184;60.256;18.694;2023-04-03T15:47:20;3.30;99.90
16158;DHT22;8184;60.256;18.694;2023-04-03T15:49:49;2.60;99.90
16158;DHT22;8184;60.256;18.694;2023-04-03T15:52:17;2.80;99.90
16158;DHT22;8184;60.256;18.694;2023-04-03T15:54:45;2.70;99.90
16158;DHT22;8184;60.256;18.694;2023-04-03T15:57:13;2.10;99.90
16158;DHT22;8184;60.256;18.694;2023-04-03T15:59:43;1.90;99.90
16158;DHT22;8184;60.256;18.694;2023-04-03T16:02:11;1.90;99.90
16158;DHT22;8184;60.256;18.694;2023-04-03T16:04:40;2.00;99.90
16158;DHT22;8184;60.256;18.694;2023-04-03T16:07:11;2.00;99.90
16158;DHT22;8184;60.256;18.694;2023-04-03T16:09:39;2.50;99.90
16158;DHT22;8184;60.256;18.694;2023-04-03T16:12:10;2.90;99.90
16158;DHT22;8184;60.256;18.694;2023-04-03T16:14:38;2.70;99.90
16158;DHT22;8184;60.256;18.694;2023-04-03T16:17:08;2.40;99.90
16158;DHT22;8184;60.256;18.694;2023-04-03T16:19:36;2.60;99.90